createdAt,value
2023-03-29T00:00:26.793Z,101161.13
2023-03-29T00:05:26.109Z,101163.56
2023-03-29T00:10:24.892Z,101157.38
2023-03-29T00:15:23.606Z,101153.78
2023-03-29T00:20:23.794Z,101151.97
2023-03-29T00:25:22.480Z,101157.56
2023-03-29T00:30:21.367Z,101157.56
2023-03-29T00:35:20.680Z,101163.75
2023-03-29T00:40:21.020Z,101159.34
2023-03-29T00:45:22.412Z,101154.38
2023-03-29T00:50:26.011Z,101161.31
2023-03-29T00:55:28.928Z,101163.97
2023-03-29T01:00:32.421Z,101165.59
2023-03-29T01:05:37.733Z,101161.44
2023-03-29T01:10:43.630Z,101159.56
2023-03-29T01:15:46.068Z,101177.88
2023-03-29T01:21:05.012Z,101172.06
2023-03-29T01:26:16.091Z,101181.50
2023-03-29T01:31:22.228Z,101170.34
2023-03-29T01:36:27.498Z,101168.63
2023-03-29T01:41:36.611Z,101169.47
2023-03-29T01:46:44.426Z,101177.19
2023-03-29T01:51:50.502Z,101164.31
2023-03-29T01:56:51.899Z,101177.28
2023-03-29T02:01:56.689Z,101178.25
2023-03-29T02:07:01.068Z,101182.56
2023-03-29T02:12:02.327Z,101188.50
2023-03-29T02:17:22.358Z,101198.88
2023-03-29T02:22:25.586Z,101203.91
2023-03-29T02:27:24.334Z,101207.47
2023-03-29T02:32:30.462Z,101207.50
2023-03-29T02:37:31.523Z,101219.56
2023-03-29T02:42:31.480Z,101226.56
2023-03-29T02:47:35.015Z,101217.91
2023-03-29T02:52:39.406Z,101212.75
2023-03-29T02:57:41.028Z,101223.16
2023-03-29T03:02:41.950Z,101232.63
2023-03-29T03:07:42.585Z,101242.13
2023-03-29T03:12:41.603Z,101250.75
2023-03-29T03:17:42.003Z,101272.38
2023-03-29T03:22:42.687Z,101262.88
2023-03-29T03:27:41.467Z,101275.81
2023-03-29T03:32:41.720Z,101288.75
2023-03-29T03:37:59.148Z,101293.94
2023-03-29T03:42:58.157Z,101293.94
2023-03-29T03:47:58.498Z,101293.06
2023-03-29T03:53:29.584Z,101306.00
2023-03-29T03:58:47.729Z,101311.19
2023-03-29T04:03:50.953Z,101325.00
2023-03-29T04:08:51.764Z,101342.25
2023-03-29T04:14:00.278Z,101337.94
2023-03-29T04:19:10.468Z,101344.00
2023-03-29T04:24:10.741Z,101345.69
2023-03-29T04:29:13.129Z,101344.00
2023-03-29T04:34:18.971Z,101355.19
2023-03-29T04:39:19.337Z,101360.41
2023-03-29T04:44:22.932Z,101361.22
2023-03-29T04:49:25.988Z,101376.78
2023-03-29T04:54:26.004Z,101383.66
2023-03-29T04:59:41.520Z,101394.91
2023-03-29T05:05:00.200Z,101398.34
2023-03-29T05:09:59.829Z,101407.88
2023-03-29T05:14:59.184Z,101412.16
2023-03-29T05:20:01.549Z,101419.94
2023-03-29T05:25:00.749Z,101423.41
2023-03-29T05:29:59.759Z,101419.06
2023-03-29T05:35:06.886Z,101429.44
2023-03-29T05:40:10.479Z,101424.25
2023-03-29T05:45:35.467Z,101422.53
2023-03-29T05:50:36.960Z,101448.44
2023-03-29T05:55:37.214Z,101430.31
2023-03-29T06:00:37.193Z,101435.47
2023-03-29T06:06:00.536Z,101450.09
2023-03-29T06:11:04.546Z,101450.94
2023-03-29T06:16:27.175Z,101451.81
2023-03-29T06:21:28.623Z,101452.63
2023-03-29T06:26:28.882Z,101451.59
2023-03-29T06:31:27.947Z,101449.00
2023-03-29T06:36:29.626Z,101454.16
2023-03-29T06:41:28.583Z,101444.47
2023-03-29T06:46:39.165Z,101452.22
2023-03-29T06:51:42.261Z,101452.28
2023-03-29T06:56:41.437Z,101459.09
2023-03-29T07:01:47.348Z,101450.28
2023-03-29T07:07:01.642Z,101454.44
2023-03-29T07:12:02.552Z,101445.56
2023-03-29T07:17:01.507Z,101449.84
2023-03-29T07:22:11.329Z,101458.22
2023-03-29T07:27:23.824Z,101461.56
2023-03-29T07:32:22.911Z,101469.44
2023-03-29T07:37:44.545Z,101437.66
2023-03-29T07:42:45.066Z,101449.19
2023-03-29T07:47:49.140Z,101450.97
2023-03-29T07:52:50.246Z,101452.13
2023-03-29T07:57:50.430Z,101453.50
2023-03-29T08:02:52.358Z,101446.28
2023-03-29T08:07:53.083Z,101438.72
2023-03-29T08:13:11.917Z,101422.63
2023-03-29T08:18:18.937Z,101433.72
2023-03-29T08:23:19.216Z,101424.34
2023-03-29T08:28:38.289Z,101427.53
2023-03-29T08:33:37.741Z,101431.34
2023-03-29T08:38:57.766Z,101419.16
2023-03-29T08:44:10.901Z,101428.31
2023-03-29T08:49:24.857Z,101422.09
2023-03-29T08:54:28.115Z,101426.03
2023-03-29T08:59:42.798Z,101425.00
2023-03-29T09:04:44.239Z,101427.47
2023-03-29T09:10:03.605Z,101410.75
2023-03-29T09:15:19.619Z,101408.53
2023-03-29T09:20:37.923Z,101411.31
2023-03-29T09:25:54.147Z,101438.84
2023-03-29T09:31:02.805Z,101431.28
2023-03-29T09:36:08.968Z,101447.28
2023-03-29T09:41:21.444Z,101436.03
2023-03-29T09:46:26.036Z,101490.09
2023-03-29T09:51:31.124Z,101501.81
2023-03-29T09:56:31.922Z,101489.81
2023-03-29T10:01:41.735Z,101460.69
2023-03-29T10:06:47.207Z,101459.50
2023-03-29T10:11:54.593Z,101441.59
2023-03-29T10:16:57.599Z,101452.19
2023-03-29T10:22:02.607Z,101470.00
2023-03-29T10:27:04.642Z,101478.00
2023-03-29T10:32:03.584Z,101449.81
2023-03-29T10:37:02.705Z,101467.22
2023-03-29T10:42:05.610Z,101450.97
2023-03-29T10:47:14.986Z,101442.59
2023-03-29T10:52:15.596Z,101437.38
2023-03-29T10:57:22.787Z,101428.88
2023-03-29T11:02:39.836Z,101437.69
2023-03-29T11:07:47.936Z,101408.81
2023-03-29T11:12:56.290Z,101400.09
2023-03-29T11:18:07.718Z,101397.66
2023-03-29T11:23:20.605Z,101400.16
2023-03-29T11:28:34.808Z,101415.94
2023-03-29T11:33:49.878Z,101405.91
2023-03-29T11:38:59.603Z,101392.59
2023-03-29T11:44:05.186Z,101375.78
2023-03-29T11:49:11.368Z,101381.25
2023-03-29T11:54:19.020Z,101404.25
2023-03-29T11:59:24.387Z,101388.03
2023-03-29T12:04:30.077Z,101382.47
2023-03-29T12:09:34.244Z,101382.41
2023-03-29T12:14:48.108Z,101390.00
2023-03-29T12:19:53.216Z,101395.72
2023-03-29T12:24:55.112Z,101397.34
2023-03-29T12:30:23.524Z,101394.53
2023-03-29T12:35:34.324Z,101399.69
2023-03-29T12:40:57.801Z,101396.44
2023-03-29T12:46:19.744Z,101412.28
2023-03-29T12:51:21.165Z,101391.34
2023-03-29T12:56:23.937Z,101386.84
2023-03-29T13:01:31.369Z,101394.06
2023-03-29T13:06:33.322Z,101394.00
2023-03-29T13:11:36.306Z,101395.56
2023-03-29T13:16:37.123Z,101378.69
2023-03-29T13:21:47.846Z,101401.59
2023-03-29T13:26:57.335Z,101388.47
2023-03-29T13:32:06.722Z,101393.69
2023-03-29T13:37:22.215Z,101394.94
2023-03-29T13:42:26.171Z,101396.69
2023-03-29T13:47:48.955Z,101401.81
2023-03-29T13:53:04.195Z,101395.47
2023-03-29T13:58:09.719Z,101385.00
2023-03-29T14:03:15.038Z,101400.06
2023-03-29T14:08:23.280Z,101395.44
2023-03-29T14:13:25.615Z,101391.47
2023-03-29T14:18:27.606Z,101392.47
2023-03-29T14:23:30.456Z,101396.63
2023-03-29T14:28:30.200Z,101409.28
2023-03-29T14:33:33.540Z,101410.81
2023-03-29T14:38:32.461Z,101411.19
2023-03-29T14:43:33.078Z,101399.84
2023-03-29T14:48:35.033Z,101409.00
2023-03-29T14:53:37.156Z,101410.41
2023-03-29T14:58:37.211Z,101407.03
2023-03-29T15:03:46.172Z,101406.13
2023-03-29T15:09:01.509Z,101409.00
2023-03-29T15:14:06.752Z,101405.91
2023-03-29T15:19:07.823Z,101408.03
2023-03-29T15:24:11.134Z,101413.00
2023-03-29T15:29:17.335Z,101418.59
2023-03-29T15:34:34.691Z,101418.16
2023-03-29T15:39:35.314Z,101423.34
2023-03-29T15:44:36.809Z,101422.25
2023-03-29T15:49:37.835Z,101419.78
2023-03-29T15:54:37.353Z,101427.09
2023-03-29T15:59:36.654Z,101435.81
2023-03-29T16:04:35.825Z,101443.06
2023-03-29T16:09:37.231Z,101435.41
2023-03-29T16:14:36.406Z,101449.94
2023-03-29T16:19:38.252Z,101458.91
2023-03-29T16:24:38.795Z,101460.59
2023-03-29T16:29:37.749Z,101472.72
2023-03-29T16:34:38.399Z,101482.72
2023-03-29T16:39:38.933Z,101479.00
2023-03-29T16:44:39.400Z,101482.91
2023-03-29T16:49:40.200Z,101490.56
2023-03-29T16:54:43.873Z,101490.84
2023-03-29T16:59:45.172Z,101511.28
2023-03-29T17:04:44.036Z,101513.41
2023-03-29T17:09:45.972Z,101515.72
2023-03-29T17:14:44.784Z,101526.78
2023-03-29T17:19:44.181Z,101542.59
2023-03-29T17:24:44.755Z,101554.56
2023-03-29T17:29:43.944Z,101561.13
2023-03-29T17:34:43.034Z,101580.13
2023-03-29T17:39:42.274Z,101592.25
2023-03-29T17:44:43.026Z,101609.53
2023-03-29T17:49:42.473Z,101619.94
2023-03-29T17:54:41.932Z,101627.47
2023-03-29T17:59:42.338Z,101640.09
2023-03-29T18:04:45.030Z,101639.59
2023-03-29T18:09:44.475Z,101637.00
2023-03-29T18:14:44.963Z,101637.78
2023-03-29T18:19:43.997Z,101645.19
2023-03-29T18:24:42.805Z,101634.22
2023-03-29T18:29:41.981Z,101649.78
2023-03-29T18:34:45.708Z,101642.09
2023-03-29T18:39:44.899Z,101644.69
2023-03-29T18:44:44.069Z,101636.28
2023-03-29T18:49:44.228Z,101663.53
2023-03-29T18:54:43.095Z,101662.03
2023-03-29T18:59:47.817Z,101676.13
2023-03-29T19:04:48.308Z,101681.50
2023-03-29T19:09:47.101Z,101679.84
2023-03-29T19:14:45.927Z,101673.06
2023-03-29T19:19:44.800Z,101686.00
2023-03-29T19:24:45.041Z,101678.28
2023-03-29T19:29:44.180Z,101689.59
2023-03-29T19:34:43.067Z,101685.91
2023-03-29T19:39:42.208Z,101684.88
2023-03-29T19:44:42.443Z,101686.59
2023-03-29T19:49:41.357Z,101691.00
2023-03-29T19:54:40.244Z,101688.66
2023-03-29T19:59:40.832Z,101691.78
2023-03-29T20:04:41.306Z,101692.66
2023-03-29T20:09:40.832Z,101695.19
2023-03-29T20:14:43.406Z,101697.84
2023-03-29T20:19:44.220Z,101699.66
2023-03-29T20:24:43.796Z,101695.56
2023-03-29T20:29:42.923Z,101689.56
2023-03-29T20:34:43.221Z,101688.06
2023-03-29T20:39:41.981Z,101692.59
2023-03-29T20:44:40.856Z,101683.81
2023-03-29T20:49:43.166Z,101684.63
2023-03-29T20:54:42.218Z,101679.56
2023-03-29T20:59:41.685Z,101679.63
2023-03-29T21:04:40.790Z,101684.25
2023-03-29T21:09:42.303Z,101682.38
2023-03-29T21:14:41.068Z,101690.06
2023-03-29T21:19:40.267Z,101691.78
2023-03-29T21:24:40.451Z,101702.06
2023-03-29T21:29:39.563Z,101696.94
2023-03-29T21:34:38.407Z,101697.28
2023-03-29T21:39:37.142Z,101696.50
2023-03-29T21:44:37.383Z,101689.31
2023-03-29T21:49:36.393Z,101687.44
2023-03-29T21:54:35.324Z,101697.13
2023-03-29T21:59:34.118Z,101698.06
2023-03-29T22:04:36.955Z,101708.56
2023-03-29T22:09:36.623Z,101698.97
2023-03-29T22:14:35.796Z,101699.81
2023-03-29T22:19:39.214Z,101701.56
2023-03-29T22:24:38.388Z,101694.53
2023-03-29T22:29:37.343Z,101687.53
2023-03-29T22:34:37.633Z,101703.22
2023-03-29T22:39:36.865Z,101700.59
2023-03-29T22:44:36.187Z,101710.31
2023-03-29T22:49:35.154Z,101709.47
2023-03-29T22:54:35.630Z,101724.22
2023-03-29T22:59:34.627Z,101723.47
2023-03-29T23:04:33.500Z,101734.81
2023-03-29T23:09:32.554Z,101731.50
2023-03-29T23:14:33.881Z,101735.88
2023-03-29T23:19:32.971Z,101732.34
2023-03-29T23:24:31.941Z,101735.81
2023-03-29T23:29:32.068Z,101730.66
2023-03-29T23:34:31.042Z,101726.41
2023-03-29T23:39:29.744Z,101731.78
2023-03-29T23:44:28.744Z,101730.94
2023-03-29T23:49:30.146Z,101732.66
2023-03-29T23:54:29.184Z,101726.09
2023-03-29T23:59:30.902Z,101730.47
